sensor_id;sensor_type;location;lat;lon;timestamp;P1;durP1;ratioP1;P2;durP2;ratioP2
77278;SDS011;66332;50.436;15.378;2023-02-28T00:02:03;9.82;;;4.35;;
77278;SDS011;66332;50.436;15.378;2023-02-28T00:06:44;11.18;;;4.88;;
77278;SDS011;66332;50.436;15.378;2023-02-28T00:11:25;10.43;;;4.63;;
77278;SDS011;66332;50.436;15.378;2023-02-28T00:16:07;10.75;;;5.00;;
77278;SDS011;66332;50.436;15.378;2023-02-28T00:20:49;11.93;;;4.90;;
77278;SDS011;66332;50.436;15.378;2023-02-28T00:25:30;11.00;;;4.82;;
77278;SDS011;66332;50.436;15.378;2023-02-28T00:30:13;13.23;;;5.35;;
77278;SDS011;66332;50.436;15.378;2023-02-28T00:34:56;11.23;;;3.92;;
77278;SDS011;66332;50.436;15.378;2023-02-28T00:39:37;10.63;;;4.43;;
77278;SDS011;66332;50.436;15.378;2023-02-28T00:44:19;9.50;;;4.45;;
77278;SDS011;66332;50.436;15.378;2023-02-28T00:49:02;10.98;;;4.93;;
77278;SDS011;66332;50.436;15.378;2023-02-28T00:53:43;12.65;;;4.35;;
77278;SDS011;66332;50.436;15.378;2023-02-28T00:58:24;10.57;;;4.65;;
77278;SDS011;66332;50.436;15.378;2023-02-28T01:03:05;9.10;;;3.92;;
77278;SDS011;66332;50.436;15.378;2023-02-28T01:07:46;10.07;;;4.90;;
77278;SDS011;66332;50.436;15.378;2023-02-28T01:12:26;8.57;;;4.03;;
77278;SDS011;66332;50.436;15.378;2023-02-28T01:17:07;11.85;;;4.70;;
77278;SDS011;66332;50.436;15.378;2023-02-28T01:21:48;11.13;;;4.72;;
77278;SDS011;66332;50.436;15.378;2023-02-28T01:26:30;12.63;;;5.28;;
77278;SDS011;66332;50.436;15.378;2023-02-28T01:31:11;11.98;;;5.22;;
77278;SDS011;66332;50.436;15.378;2023-02-28T01:35:59;12.23;;;4.47;;
77278;SDS011;66332;50.436;15.378;2023-02-28T01:40:41;11.48;;;4.63;;
77278;SDS011;66332;50.436;15.378;2023-02-28T01:50:12;12.60;;;4.80;;
77278;SDS011;66332;50.436;15.378;2023-02-28T01:54:59;8.75;;;4.35;;
77278;SDS011;66332;50.436;15.378;2023-02-28T01:59:53;11.45;;;5.38;;
77278;SDS011;66332;50.436;15.378;2023-02-28T02:05:05;10.73;;;3.95;;
77278;SDS011;66332;50.436;15.378;2023-02-28T02:09:47;12.55;;;5.60;;
77278;SDS011;66332;50.436;15.378;2023-02-28T02:24:45;11.85;;;4.65;;
77278;SDS011;66332;50.436;15.378;2023-02-28T02:40:19;12.52;;;5.07;;
77278;SDS011;66332;50.436;15.378;2023-02-28T02:45:07;11.43;;;4.88;;
77278;SDS011;66332;50.436;15.378;2023-02-28T02:49:52;15.07;;;5.28;;
77278;SDS011;66332;50.436;15.378;2023-02-28T02:54:37;14.10;;;5.53;;
77278;SDS011;66332;50.436;15.378;2023-02-28T02:59:21;11.80;;;4.32;;
77278;SDS011;66332;50.436;15.378;2023-02-28T03:04:05;11.15;;;4.97;;
77278;SDS011;66332;50.436;15.378;2023-02-28T03:08:49;10.50;;;4.88;;
77278;SDS011;66332;50.436;15.378;2023-02-28T03:13:46;11.32;;;4.35;;
77278;SDS011;66332;50.436;15.378;2023-02-28T03:33:31;12.38;;;4.40;;
77278;SDS011;66332;50.436;15.378;2023-02-28T03:43:20;11.93;;;4.95;;
77278;SDS011;66332;50.436;15.378;2023-02-28T03:48:08;11.07;;;4.28;;
77278;SDS011;66332;50.436;15.378;2023-02-28T03:53:02;7.78;;;3.50;;
77278;SDS011;66332;50.436;15.378;2023-02-28T03:58:01;8.25;;;3.97;;
77278;SDS011;66332;50.436;15.378;2023-02-28T04:03:05;8.85;;;4.00;;
77278;SDS011;66332;50.436;15.378;2023-02-28T04:07:46;9.10;;;4.45;;
77278;SDS011;66332;50.436;15.378;2023-02-28T04:12:28;11.63;;;4.82;;
77278;SDS011;66332;50.436;15.378;2023-02-28T04:17:09;10.68;;;3.97;;
77278;SDS011;66332;50.436;15.378;2023-02-28T04:21:51;10.40;;;4.45;;
77278;SDS011;66332;50.436;15.378;2023-02-28T04:26:33;11.32;;;4.38;;
77278;SDS011;66332;50.436;15.378;2023-02-28T04:31:16;11.30;;;5.15;;
77278;SDS011;66332;50.436;15.378;2023-02-28T04:35:58;9.73;;;4.80;;
77278;SDS011;66332;50.436;15.378;2023-02-28T04:40:43;9.93;;;4.30;;
77278;SDS011;66332;50.436;15.378;2023-02-28T04:45:24;8.98;;;4.60;;
77278;SDS011;66332;50.436;15.378;2023-02-28T04:50:05;10.23;;;4.65;;
77278;SDS011;66332;50.436;15.378;2023-02-28T04:54:46;9.40;;;4.72;;
77278;SDS011;66332;50.436;15.378;2023-02-28T04:59:27;6.90;;;3.53;;
77278;SDS011;66332;50.436;15.378;2023-02-28T05:04:15;10.35;;;4.50;;
77278;SDS011;66332;50.436;15.378;2023-02-28T05:08:57;13.20;;;5.55;;
77278;SDS011;66332;50.436;15.378;2023-02-28T05:13:38;8.95;;;2.92;;
77278;SDS011;66332;50.436;15.378;2023-02-28T05:18:19;8.30;;;3.72;;
77278;SDS011;66332;50.436;15.378;2023-02-28T05:23:00;9.73;;;3.90;;
77278;SDS011;66332;50.436;15.378;2023-02-28T05:27:42;10.55;;;3.67;;
77278;SDS011;66332;50.436;15.378;2023-02-28T05:32:23;9.05;;;3.80;;
77278;SDS011;66332;50.436;15.378;2023-02-28T05:37:04;6.43;;;2.97;;
77278;SDS011;66332;50.436;15.378;2023-02-28T05:41:45;8.00;;;3.63;;
77278;SDS011;66332;50.436;15.378;2023-02-28T05:46:26;10.00;;;3.95;;
77278;SDS011;66332;50.436;15.378;2023-02-28T05:51:08;8.98;;;3.63;;
77278;SDS011;66332;50.436;15.378;2023-02-28T05:55:49;6.93;;;2.72;;
77278;SDS011;66332;50.436;15.378;2023-02-28T06:00:30;7.93;;;3.28;;
77278;SDS011;66332;50.436;15.378;2023-02-28T06:05:15;9.30;;;4.10;;
77278;SDS011;66332;50.436;15.378;2023-02-28T06:09:57;9.20;;;3.40;;
77278;SDS011;66332;50.436;15.378;2023-02-28T06:14:38;10.15;;;3.88;;
77278;SDS011;66332;50.436;15.378;2023-02-28T06:19:19;10.45;;;3.72;;
77278;SDS011;66332;50.436;15.378;2023-02-28T06:24:00;7.47;;;3.08;;
77278;SDS011;66332;50.436;15.378;2023-02-28T06:28:41;6.70;;;2.63;;
77278;SDS011;66332;50.436;15.378;2023-02-28T06:33:22;7.90;;;3.13;;
77278;SDS011;66332;50.436;15.378;2023-02-28T06:38:03;8.75;;;4.03;;
77278;SDS011;66332;50.436;15.378;2023-02-28T06:42:44;8.43;;;3.50;;
77278;SDS011;66332;50.436;15.378;2023-02-28T06:47:25;8.02;;;3.90;;
77278;SDS011;66332;50.436;15.378;2023-02-28T06:52:06;11.15;;;4.35;;
77278;SDS011;66332;50.436;15.378;2023-02-28T06:56:47;9.50;;;3.22;;
77278;SDS011;66332;50.436;15.378;2023-02-28T07:01:28;9.40;;;3.72;;
77278;SDS011;66332;50.436;15.378;2023-02-28T07:06:09;7.60;;;3.35;;
77278;SDS011;66332;50.436;15.378;2023-02-28T07:10:53;9.82;;;3.97;;
77278;SDS011;66332;50.436;15.378;2023-02-28T07:15:36;8.38;;;3.80;;
77278;SDS011;66332;50.436;15.378;2023-02-28T07:20:17;9.00;;;4.05;;
77278;SDS011;66332;50.436;15.378;2023-02-28T07:24:58;6.50;;;3.60;;
77278;SDS011;66332;50.436;15.378;2023-02-28T07:29:39;4.95;;;2.35;;
77278;SDS011;66332;50.436;15.378;2023-02-28T07:34:20;5.43;;;2.28;;
77278;SDS011;66332;50.436;15.378;2023-02-28T07:39:01;6.40;;;2.90;;
77278;SDS011;66332;50.436;15.378;2023-02-28T07:43:42;6.55;;;3.10;;
77278;SDS011;66332;50.436;15.378;2023-02-28T07:48:23;8.57;;;2.60;;
77278;SDS011;66332;50.436;15.378;2023-02-28T07:53:03;12.30;;;2.47;;
77278;SDS011;66332;50.436;15.378;2023-02-28T07:57:44;6.20;;;2.80;;
77278;SDS011;66332;50.436;15.378;2023-02-28T08:02:25;10.65;;;4.05;;
77278;SDS011;66332;50.436;15.378;2023-02-28T08:07:06;7.38;;;2.83;;
77278;SDS011;66332;50.436;15.378;2023-02-28T08:11:47;6.25;;;2.30;;
77278;SDS011;66332;50.436;15.378;2023-02-28T08:16:28;6.63;;;3.03;;
77278;SDS011;66332;50.436;15.378;2023-02-28T08:21:09;8.25;;;3.40;;
77278;SDS011;66332;50.436;15.378;2023-02-28T08:25:54;9.68;;;3.05;;
77278;SDS011;66332;50.436;15.378;2023-02-28T08:30:36;7.70;;;3.97;;
77278;SDS011;66332;50.436;15.378;2023-02-28T08:35:17;7.40;;;2.88;;
77278;SDS011;66332;50.436;15.378;2023-02-28T08:39:58;6.95;;;2.50;;
77278;SDS011;66332;50.436;15.378;2023-02-28T08:44:39;7.50;;;2.97;;
77278;SDS011;66332;50.436;15.378;2023-02-28T08:49:20;7.35;;;3.17;;
77278;SDS011;66332;50.436;15.378;2023-02-28T08:54:01;8.73;;;3.75;;
77278;SDS011;66332;50.436;15.378;2023-02-28T08:58:43;6.90;;;2.47;;
77278;SDS011;66332;50.436;15.378;2023-02-28T09:03:25;5.80;;;2.78;;
77278;SDS011;66332;50.436;15.378;2023-02-28T09:12:47;7.82;;;3.45;;
77278;SDS011;66332;50.436;15.378;2023-02-28T09:17:28;9.45;;;3.92;;
77278;SDS011;66332;50.436;15.378;2023-02-28T09:22:10;7.28;;;2.97;;
77278;SDS011;66332;50.436;15.378;2023-02-28T09:26:51;7.53;;;3.92;;
77278;SDS011;66332;50.436;15.378;2023-02-28T09:31:32;7.18;;;3.47;;
77278;SDS011;66332;50.436;15.378;2023-02-28T09:36:13;8.80;;;3.88;;
77278;SDS011;66332;50.436;15.378;2023-02-28T09:40:55;9.43;;;3.78;;
77278;SDS011;66332;50.436;15.378;2023-02-28T09:45:39;8.65;;;3.60;;
77278;SDS011;66332;50.436;15.378;2023-02-28T10:00:19;10.68;;;3.90;;
77278;SDS011;66332;50.436;15.378;2023-02-28T10:05:11;9.27;;;4.40;;
77278;SDS011;66332;50.436;15.378;2023-02-28T10:09:55;8.95;;;3.53;;
77278;SDS011;66332;50.436;15.378;2023-02-28T10:14:40;8.23;;;3.90;;
77278;SDS011;66332;50.436;15.378;2023-02-28T10:19:32;9.00;;;4.20;;
77278;SDS011;66332;50.436;15.378;2023-02-28T10:24:23;10.35;;;5.03;;
77278;SDS011;66332;50.436;15.378;2023-02-28T10:29:10;9.65;;;4.60;;
77278;SDS011;66332;50.436;15.378;2023-02-28T10:33:51;10.60;;;4.90;;
77278;SDS011;66332;50.436;15.378;2023-02-28T10:38:34;12.18;;;5.57;;
77278;SDS011;66332;50.436;15.378;2023-02-28T10:48:01;12.60;;;5.65;;
77278;SDS011;66332;50.436;15.378;2023-02-28T10:53:10;15.38;;;8.10;;
77278;SDS011;66332;50.436;15.378;2023-02-28T10:57:55;11.55;;;5.30;;
77278;SDS011;66332;50.436;15.378;2023-02-28T11:02:36;10.52;;;5.13;;
77278;SDS011;66332;50.436;15.378;2023-02-28T11:07:23;9.52;;;4.63;;
77278;SDS011;66332;50.436;15.378;2023-02-28T11:12:54;9.23;;;4.55;;
77278;SDS011;66332;50.436;15.378;2023-02-28T11:17:26;11.90;;;4.60;;
77278;SDS011;66332;50.436;15.378;2023-02-28T11:22:09;9.45;;;4.57;;
77278;SDS011;66332;50.436;15.378;2023-02-28T11:26:51;8.90;;;4.47;;
77278;SDS011;66332;50.436;15.378;2023-02-28T11:31:32;9.95;;;5.15;;
77278;SDS011;66332;50.436;15.378;2023-02-28T11:36:20;11.15;;;4.90;;
77278;SDS011;66332;50.436;15.378;2023-02-28T11:46:51;10.50;;;5.45;;
77278;SDS011;66332;50.436;15.378;2023-02-28T11:51:35;13.48;;;5.78;;
77278;SDS011;66332;50.436;15.378;2023-02-28T11:56:32;12.27;;;5.45;;
77278;SDS011;66332;50.436;15.378;2023-02-28T12:01:20;10.65;;;5.40;;
77278;SDS011;66332;50.436;15.378;2023-02-28T12:06:23;11.70;;;5.28;;
77278;SDS011;66332;50.436;15.378;2023-02-28T12:11:28;10.55;;;5.18;;
77278;SDS011;66332;50.436;15.378;2023-02-28T12:31:17;8.52;;;4.38;;
77278;SDS011;66332;50.436;15.378;2023-02-28T12:36:01;12.20;;;6.15;;
77278;SDS011;66332;50.436;15.378;2023-02-28T12:50:31;15.13;;;6.28;;
77278;SDS011;66332;50.436;15.378;2023-02-28T13:00:25;12.00;;;6.63;;
77278;SDS011;66332;50.436;15.378;2023-02-28T13:10:48;14.40;;;7.30;;
77278;SDS011;66332;50.436;15.378;2023-02-28T13:15:34;13.13;;;6.55;;
77278;SDS011;66332;50.436;15.378;2023-02-28T13:20:21;11.98;;;5.80;;
77278;SDS011;66332;50.436;15.378;2023-02-28T13:30:49;13.27;;;7.10;;
77278;SDS011;66332;50.436;15.378;2023-02-28T13:35:35;11.93;;;5.65;;
77278;SDS011;66332;50.436;15.378;2023-02-28T13:40:28;13.52;;;7.28;;
77278;SDS011;66332;50.436;15.378;2023-02-28T13:45:25;13.63;;;6.72;;
77278;SDS011;66332;50.436;15.378;2023-02-28T13:59:46;11.70;;;5.90;;
77278;SDS011;66332;50.436;15.378;2023-02-28T14:09:26;11.40;;;6.43;;
77278;SDS011;66332;50.436;15.378;2023-02-28T14:14:09;15.65;;;7.82;;
77278;SDS011;66332;50.436;15.378;2023-02-28T14:19:19;16.08;;;7.80;;
77278;SDS011;66332;50.436;15.378;2023-02-28T14:39:17;13.90;;;8.00;;
77278;SDS011;66332;50.436;15.378;2023-02-28T14:44:03;13.13;;;7.18;;
77278;SDS011;66332;50.436;15.378;2023-02-28T14:49:05;13.95;;;7.50;;
77278;SDS011;66332;50.436;15.378;2023-02-28T14:53:51;14.05;;;7.90;;
77278;SDS011;66332;50.436;15.378;2023-02-28T14:58:37;14.77;;;7.43;;
77278;SDS011;66332;50.436;15.378;2023-02-28T15:03:20;13.45;;;7.18;;
77278;SDS011;66332;50.436;15.378;2023-02-28T15:08:10;13.65;;;6.93;;
77278;SDS011;66332;50.436;15.378;2023-02-28T15:12:58;12.77;;;6.93;;
77278;SDS011;66332;50.436;15.378;2023-02-28T15:17:42;15.38;;;7.93;;
77278;SDS011;66332;50.436;15.378;2023-02-28T15:22:28;14.77;;;6.90;;
77278;SDS011;66332;50.436;15.378;2023-02-28T15:27:20;13.25;;;7.25;;
77278;SDS011;66332;50.436;15.378;2023-02-28T15:32:05;16.30;;;8.15;;
77278;SDS011;66332;50.436;15.378;2023-02-28T15:36:47;14.10;;;7.18;;
77278;SDS011;66332;50.436;15.378;2023-02-28T15:46:11;15.10;;;7.32;;
77278;SDS011;66332;50.436;15.378;2023-02-28T15:55:52;16.75;;;7.40;;
77278;SDS011;66332;50.436;15.378;2023-02-28T16:00:36;14.23;;;7.32;;
77278;SDS011;66332;50.436;15.378;2023-02-28T16:10:09;17.33;;;7.20;;
77278;SDS011;66332;50.436;15.378;2023-02-28T16:14:52;15.32;;;7.80;;
77278;SDS011;66332;50.436;15.378;2023-02-28T16:19:34;13.45;;;6.90;;
77278;SDS011;66332;50.436;15.378;2023-02-28T16:24:15;16.13;;;7.15;;
77278;SDS011;66332;50.436;15.378;2023-02-28T16:28:56;12.38;;;6.45;;
77278;SDS011;66332;50.436;15.378;2023-02-28T16:33:40;17.40;;;7.65;;
77278;SDS011;66332;50.436;15.378;2023-02-28T16:38:22;16.08;;;8.13;;
77278;SDS011;66332;50.436;15.378;2023-02-28T16:43:07;20.02;;;8.27;;
77278;SDS011;66332;50.436;15.378;2023-02-28T16:47:54;18.35;;;8.38;;
77278;SDS011;66332;50.436;15.378;2023-02-28T16:52:36;19.58;;;8.77;;
77278;SDS011;66332;50.436;15.378;2023-02-28T16:57:21;17.73;;;7.57;;
77278;SDS011;66332;50.436;15.378;2023-02-28T17:02:08;19.98;;;8.48;;
77278;SDS011;66332;50.436;15.378;2023-02-28T17:06:53;21.10;;;10.10;;
77278;SDS011;66332;50.436;15.378;2023-02-28T17:11:34;32.67;;;13.57;;
77278;SDS011;66332;50.436;15.378;2023-02-28T17:16:17;30.02;;;13.18;;
77278;SDS011;66332;50.436;15.378;2023-02-28T17:21:14;17.33;;;8.60;;
77278;SDS011;66332;50.436;15.378;2023-02-28T17:25:56;19.65;;;9.32;;
77278;SDS011;66332;50.436;15.378;2023-02-28T17:30:37;17.90;;;8.80;;
77278;SDS011;66332;50.436;15.378;2023-02-28T17:35:18;14.30;;;6.45;;
77278;SDS011;66332;50.436;15.378;2023-02-28T17:39:59;12.77;;;5.55;;
77278;SDS011;66332;50.436;15.378;2023-02-28T17:44:40;18.85;;;8.63;;
77278;SDS011;66332;50.436;15.378;2023-02-28T17:49:28;17.80;;;8.57;;
77278;SDS011;66332;50.436;15.378;2023-02-28T17:54:09;20.92;;;10.27;;
77278;SDS011;66332;50.436;15.378;2023-02-28T17:58:51;22.10;;;10.05;;
77278;SDS011;66332;50.436;15.378;2023-02-28T18:03:34;22.80;;;9.98;;
77278;SDS011;66332;50.436;15.378;2023-02-28T18:08:15;23.85;;;10.88;;
77278;SDS011;66332;50.436;15.378;2023-02-28T18:12:56;19.45;;;9.65;;
77278;SDS011;66332;50.436;15.378;2023-02-28T18:17:37;20.90;;;9.57;;
77278;SDS011;66332;50.436;15.378;2023-02-28T18:22:21;20.77;;;9.85;;
77278;SDS011;66332;50.436;15.378;2023-02-28T18:27:02;36.75;;;17.08;;
77278;SDS011;66332;50.436;15.378;2023-02-28T18:31:43;24.80;;;10.38;;
77278;SDS011;66332;50.436;15.378;2023-02-28T18:36:25;19.17;;;8.05;;
77278;SDS011;66332;50.436;15.378;2023-02-28T18:41:06;19.02;;;8.80;;
77278;SDS011;66332;50.436;15.378;2023-02-28T18:45:47;19.77;;;10.18;;
77278;SDS011;66332;50.436;15.378;2023-02-28T18:50:28;22.13;;;12.27;;
77278;SDS011;66332;50.436;15.378;2023-02-28T18:55:09;22.63;;;9.68;;
77278;SDS011;66332;50.436;15.378;2023-02-28T18:59:51;20.70;;;10.18;;
77278;SDS011;66332;50.436;15.378;2023-02-28T19:04:32;20.63;;;9.25;;
77278;SDS011;66332;50.436;15.378;2023-02-28T19:09:14;22.92;;;10.25;;
77278;SDS011;66332;50.436;15.378;2023-02-28T19:14:01;23.15;;;10.18;;
77278;SDS011;66332;50.436;15.378;2023-02-28T19:18:42;21.83;;;9.48;;
77278;SDS011;66332;50.436;15.378;2023-02-28T19:23:23;25.13;;;11.02;;
77278;SDS011;66332;50.436;15.378;2023-02-28T19:28:05;25.08;;;10.52;;
77278;SDS011;66332;50.436;15.378;2023-02-28T19:32:46;23.50;;;10.75;;
77278;SDS011;66332;50.436;15.378;2023-02-28T19:37:28;30.45;;;13.48;;
77278;SDS011;66332;50.436;15.378;2023-02-28T19:42:10;24.73;;;10.45;;
77278;SDS011;66332;50.436;15.378;2023-02-28T19:46:53;29.05;;;11.93;;
77278;SDS011;66332;50.436;15.378;2023-02-28T19:51:34;24.38;;;10.43;;
77278;SDS011;66332;50.436;15.378;2023-02-28T19:56:17;17.80;;;8.80;;
77278;SDS011;66332;50.436;15.378;2023-02-28T20:01:04;21.38;;;9.30;;
77278;SDS011;66332;50.436;15.378;2023-02-28T20:06:00;16.33;;;8.18;;
77278;SDS011;66332;50.436;15.378;2023-02-28T20:10:46;16.52;;;8.00;;
77278;SDS011;66332;50.436;15.378;2023-02-28T20:15:27;20.63;;;8.95;;
77278;SDS011;66332;50.436;15.378;2023-02-28T20:20:08;19.67;;;9.20;;
77278;SDS011;66332;50.436;15.378;2023-02-28T20:24:51;20.90;;;9.40;;
77278;SDS011;66332;50.436;15.378;2023-02-28T20:29:33;23.25;;;10.45;;
77278;SDS011;66332;50.436;15.378;2023-02-28T20:34:14;23.15;;;8.75;;
77278;SDS011;66332;50.436;15.378;2023-02-28T20:43:38;25.77;;;9.63;;
77278;SDS011;66332;50.436;15.378;2023-02-28T20:48:19;16.88;;;7.18;;
77278;SDS011;66332;50.436;15.378;2023-02-28T20:53:01;18.92;;;8.45;;
77278;SDS011;66332;50.436;15.378;2023-02-28T20:57:42;20.13;;;8.60;;
77278;SDS011;66332;50.436;15.378;2023-02-28T21:02:23;19.98;;;8.90;;
77278;SDS011;66332;50.436;15.378;2023-02-28T21:07:06;18.92;;;8.75;;
77278;SDS011;66332;50.436;15.378;2023-02-28T21:11:46;20.38;;;9.18;;
77278;SDS011;66332;50.436;15.378;2023-02-28T21:16:29;18.95;;;8.85;;
77278;SDS011;66332;50.436;15.378;2023-02-28T21:21:14;22.52;;;8.82;;
77278;SDS011;66332;50.436;15.378;2023-02-28T21:26:06;20.65;;;9.93;;
77278;SDS011;66332;50.436;15.378;2023-02-28T21:30:50;19.58;;;8.82;;
77278;SDS011;66332;50.436;15.378;2023-02-28T21:35:31;18.88;;;9.18;;
77278;SDS011;66332;50.436;15.378;2023-02-28T21:40:12;23.30;;;10.57;;
77278;SDS011;66332;50.436;15.378;2023-02-28T21:44:53;21.00;;;10.73;;
77278;SDS011;66332;50.436;15.378;2023-02-28T21:49:37;20.35;;;10.45;;
77278;SDS011;66332;50.436;15.378;2023-02-28T21:54:18;26.30;;;13.10;;
77278;SDS011;66332;50.436;15.378;2023-02-28T21:59:00;26.48;;;12.90;;
77278;SDS011;66332;50.436;15.378;2023-02-28T22:03:42;27.92;;;12.43;;
77278;SDS011;66332;50.436;15.378;2023-02-28T22:08:24;22.73;;;10.80;;
77278;SDS011;66332;50.436;15.378;2023-02-28T22:13:05;28.25;;;12.30;;
77278;SDS011;66332;50.436;15.378;2023-02-28T22:17:46;21.80;;;9.45;;
77278;SDS011;66332;50.436;15.378;2023-02-28T22:22:27;22.02;;;9.27;;
77278;SDS011;66332;50.436;15.378;2023-02-28T22:27:08;23.58;;;10.70;;
77278;SDS011;66332;50.436;15.378;2023-02-28T22:31:49;25.15;;;11.05;;
77278;SDS011;66332;50.436;15.378;2023-02-28T22:36:30;22.38;;;10.50;;
77278;SDS011;66332;50.436;15.378;2023-02-28T22:41:12;18.98;;;9.43;;
77278;SDS011;66332;50.436;15.378;2023-02-28T22:45:53;22.17;;;10.05;;
77278;SDS011;66332;50.436;15.378;2023-02-28T22:50:34;23.08;;;10.80;;
